Time;durP1;ratioP1;P1;durP2;ratioP2;P2;SDS_P1;SDS_P2;PMS_P1;PMS_P2;Temp;Humidity;BMP_temperature;BMP_pressure;BME280_temperature;BME280_humidity;BME280_pressure;Samples;Min_cycle;Max_cycle;Signal;HPM_P1;HPM_P2
2022/09/03 00:02:34;;;;;;;3.60;1.35;;;17.50;65.70;;;;;;5035604;28;20477;-69
2022/09/03 00:05:25;;;;;;;5.43;1.30;;;17.40;66.10;;;;;;5035944;28;20064;-68
2022/09/03 00:08:02;;;;;;;2.53;1.45;;;17.20;66.70;;;;;;5035523;28;20034;-68
2022/09/03 00:11:00;;;;;;;3.45;1.40;;;17.20;66.70;;;;;;5035004;28;20025;-68
2022/09/03 00:13:58;;;;;;;2.35;1.00;;;17.20;66.90;;;;;;5032533;28;20119;-68
2022/09/03 00:16:30;;;;;;;1.63;1.10;;;17.00;67.20;;;;;;5022871;28;20095;-68
2022/09/03 00:18:57;;;;;;;;;;;16.90;67.40;;;;;;5035592;28;20079;-68
2022/09/03 00:21:33;;;;;;;2.67;1.17;;;16.80;67.90;;;;;;5034750;28;19905;-68
2022/09/03 00:24:00;;;;;;;1.50;1.15;;;16.70;68.20;;;;;;5035308;28;20053;-69
2022/09/03 00:26:32;;;;;;;2.15;1.00;;;16.70;68.10;;;;;;5034478;28;20111;-68
2022/09/03 00:29:30;;;;;;;1.58;0.95;;;16.70;68.40;;;;;;5035129;28;20029;-69
2022/09/03 00:32:02;;;;;;;2.08;0.93;;;16.60;68.80;;;;;;5034987;28;20069;-68
2022/09/03 00:34:29;;;;;;;1.05;0.90;;;16.50;69.00;;;;;;5034623;28;20382;-70
2022/09/03 00:36:56;;;;;;;2.75;1.20;;;16.50;69.10;;;;;;5035083;28;20108;-68
2022/09/03 00:39:25;;;;;;;3.10;1.30;;;16.50;69.10;;;;;;5034231;28;20030;-69
2022/09/03 00:41:59;;;;;;;1.60;1.45;;;16.40;69.70;;;;;;5034792;28;20025;-69
2022/09/03 00:44:53;;;;;;;2.15;1.17;;;16.40;69.80;;;;;;5034463;28;20033;-70
2022/09/03 00:47:53;;;;;;;3.58;1.17;;;16.30;70.30;;;;;;5033081;28;20057;-70
2022/09/03 00:50:43;;;;;;;1.30;1.00;;;16.20;71.10;;;;;;5034021;28;20101;-69
2022/09/03 00:53:12;;;;;;;1.42;1.17;;;16.20;71.30;;;;;;5034400;28;20117;-69
2022/09/03 00:55:57;;;;;;;1.75;1.30;;;16.20;71.70;;;;;;5033819;28;20363;-69
2022/09/03 00:58:38;;;;;;;2.08;1.17;;;16.10;72.20;;;;;;5034174;28;20052;-69
2022/09/03 01:01:14;;;;;;;1.83;0.82;;;16.10;72.30;;;;;;5034403;28;20091;-69
2022/09/03 01:04:02;;;;;;;4.78;1.10;;;16.10;72.30;;;;;;5034219;28;20057;-69
2022/09/03 01:07:01;;;;;;;2.40;1.35;;;16.00;72.60;;;;;;5042256;28;20465;-69
2022/09/03 01:09:55;;;;;;;4.53;1.52;;;16.10;72.90;;;;;;5052672;28;20052;-69
2022/09/03 01:12:28;;;;;;;2.88;1.13;;;16.10;73.00;;;;;;5048582;28;20125;-69
2022/09/03 01:15:16;;;;;;;2.80;1.60;;;16.00;73.40;;;;;;5053801;28;20554;-69
2022/09/03 01:17:53;;;;;;;1.95;1.17;;;16.00;74.20;;;;;;5053865;28;20429;-69
2022/09/03 01:20:44;;;;;;;2.60;1.00;;;16.00;74.50;;;;;;5053560;28;20021;-69
2022/09/03 01:23:10;;;;;;;1.60;1.15;;;15.90;75.10;;;;;;5054269;28;20462;-69
2022/09/03 01:25:53;;;;;;;3.45;1.20;;;15.80;75.10;;;;;;5053505;28;20025;-69
2022/09/03 01:28:41;;;;;;;3.72;1.30;;;15.80;75.30;;;;;;5053478;28;20039;-68
2022/09/03 01:31:34;;;;;;;1.70;1.30;;;15.80;75.70;;;;;;5053424;28;20673;-69
2022/09/03 01:34:21;;;;;;;4.57;1.23;;;15.80;76.20;;;;;;5053867;28;20029;-69
2022/09/03 01:37:03;;;;;;;1.63;1.10;;;15.70;76.50;;;;;;5053346;28;20078;-69
2022/09/03 01:39:49;;;;;;;1.98;1.30;;;15.80;76.20;;;;;;5052940;28;20025;-69
2022/09/03 01:42:26;;;;;;;1.77;1.20;;;15.80;75.80;;;;;;5053548;28;20036;-69
2022/09/03 01:45:29;;;;;;;2.05;1.20;;;15.80;76.50;;;;;;5053748;28;20024;-67
2022/09/03 01:48:09;;;;;;;3.15;1.50;;;15.80;76.30;;;;;;5053554;28;20021;-69
2022/09/03 01:50:38;;;;;;;2.17;1.10;;;15.80;76.80;;;;;;5053086;28;20029;-68
2022/09/03 01:53:25;;;;;;;1.23;1.10;;;15.70;77.00;;;;;;5053455;28;20531;-67
2022/09/03 01:56:32;;;;;;;7.50;1.38;;;15.60;77.60;;;;;;5053404;28;20136;-69
2022/09/03 01:59:14;;;;;;;1.88;1.20;;;15.60;77.70;;;;;;5049972;28;20047;-69
2022/09/03 02:01:49;;;;;;;2.05;1.40;;;15.60;78.30;;;;;;5052878;28;20036;-70
2022/09/03 02:04:24;;;;;;;3.00;1.13;;;15.60;78.40;;;;;;5053591;28;20470;-69
2022/09/03 02:06:51;;;;;;;1.15;1.05;;;15.60;78.20;;;;;;5053432;28;20079;-69
2022/09/03 02:09:18;;;;;;;1.83;1.40;;;15.60;79.40;;;;;;5053136;28;20112;-69
2022/09/03 02:11:50;;;;;;;1.45;1.30;;;15.60;78.70;;;;;;5052643;28;20036;-70
2022/09/03 02:14:16;;;;;;;2.67;1.20;;;15.60;78.60;;;;;;5052985;28;20067;-69
2022/09/03 02:16:43;;;;;;;4.13;1.10;;;15.60;78.70;;;;;;5052709;28;20082;-69
2022/09/03 02:19:13;;;;;;;2.80;1.38;;;15.70;77.90;;;;;;5052603;28;20021;-69
2022/09/03 02:21:46;;;;;;;2.03;1.15;;;15.70;77.80;;;;;;5052591;28;20032;-69
2022/09/03 02:24:12;;;;;;;5.53;1.50;;;15.70;77.90;;;;;;5052671;28;20025;-69
2022/09/03 02:26:38;;;;;;;3.05;1.42;;;15.60;78.20;;;;;;5052507;28;20381;-69
2022/09/03 02:29:04;;;;;;;2.65;1.48;;;15.60;78.60;;;;;;5053179;28;20108;-69
2022/09/03 02:31:30;;;;;;;3.28;1.17;;;15.60;79.40;;;;;;5052358;28;20056;-70
2022/09/03 02:33:56;;;;;;;4.90;1.70;;;15.60;79.00;;;;;;5052838;28;20108;-69
2022/09/03 02:36:31;;;;;;;1.40;1.30;;;15.60;79.60;;;;;;5052436;28;20055;-71
2022/09/03 02:38:57;;;;;;;3.90;1.50;;;15.50;80.10;;;;;;5052842;28;20029;-68
2022/09/03 02:41:26;;;;;;;1.52;1.15;;;15.60;80.00;;;;;;5052395;28;20035;-70
2022/09/03 02:44:26;;;;;;;2.00;1.42;;;15.50;80.40;;;;;;5052688;28;20386;-69
2022/09/03 02:46:58;;;;;;;1.67;1.30;;;15.40;81.60;;;;;;5048705;28;20048;-69
2022/09/03 02:49:24;;;;;;;4.30;1.48;;;15.40;81.80;;;;;;5051994;28;20470;-70
2022/09/03 02:51:49;;;;;;;2.15;1.25;;;15.40;81.50;;;;;;5052691;28;20036;-69
2022/09/03 02:54:15;;;;;;;3.22;1.48;;;15.40;81.80;;;;;;5052675;28;20029;-69
2022/09/03 02:56:42;;;;;;;1.75;1.30;;;15.50;81.60;;;;;;5052204;28;20029;-68
2022/09/03 02:59:08;;;;;;;2.35;1.20;;;15.40;82.50;;;;;;5052127;28;20075;-70
2022/09/03 03:01:35;;;;;;;2.35;1.50;;;15.50;81.00;;;;;;5051900;28;20385;-70
2022/09/03 03:04:01;;;;;;;2.25;1.48;;;15.40;81.80;;;;;;5052592;28;20127;-69
2022/09/03 03:06:26;;;;;;;2.90;1.42;;;15.40;82.40;;;;;;5052432;28;20029;-70
2022/09/03 03:08:56;;;;;;;1.60;1.20;;;15.30;84.00;;;;;;5052473;28;20056;-68
2022/09/03 03:11:23;;;;;;;5.05;1.73;;;15.30;83.20;;;;;;5052402;28;20037;-69
2022/09/03 03:13:49;;;;;;;1.33;1.10;;;15.30;82.70;;;;;;5052744;28;20036;-69
2022/09/03 03:16:15;;;;;;;5.40;1.50;;;15.20;83.20;;;;;;5052375;28;20448;-69
2022/09/03 03:18:44;;;;;;;3.90;1.55;;;15.30;83.30;;;;;;5051725;28;20358;-69
2022/09/03 03:21:13;;;;;;;3.78;1.70;;;15.30;82.90;;;;;;5052158;28;20470;-69
2022/09/03 03:23:38;;;;;;;1.63;1.38;;;15.30;82.50;;;;;;5052015;28;20029;-69
2022/09/03 03:26:07;;;;;;;2.53;1.63;;;15.30;82.60;;;;;;5052290;28;20025;-69
2022/09/03 03:28:34;;;;;;;2.17;1.58;;;15.30;82.50;;;;;;5051922;28;20021;-69
2022/09/03 03:31:11;;;;;;;1.45;1.27;;;15.30;83.80;;;;;;5054718;28;20060;-69
2022/09/03 03:33:38;;;;;;;2.47;1.58;;;15.20;83.50;;;;;;5055438;28;20529;-69
2022/09/03 03:36:14;;;;;;;2.47;1.42;;;15.20;84.00;;;;;;5056172;28;20083;-68
2022/09/03 03:38:41;;;;;;;3.22;1.75;;;15.10;84.20;;;;;;5055661;28;20139;-69
2022/09/03 03:41:12;;;;;;;2.58;1.40;;;15.20;84.60;;;;;;5055426;28;20029;-69
2022/09/03 03:43:38;;;;;;;4.53;1.33;;;15.10;84.80;;;;;;5055227;28;20043;-69
2022/09/03 03:46:04;;;;;;;2.75;1.38;;;15.10;84.80;;;;;;5055887;28;20028;-69
2022/09/03 03:48:31;;;;;;;2.45;1.60;;;15.10;84.80;;;;;;5055451;28;20064;-69
2022/09/03 03:51:03;;;;;;;2.78;1.52;;;15.00;85.20;;;;;;5055565;28;20389;-69
2022/09/03 03:53:29;;;;;;;2.38;1.08;;;15.00;86.00;;;;;;5055333;28;20123;-68
2022/09/03 03:56:00;;;;;;;4.20;1.48;;;14.90;86.80;;;;;;5055634;28;20110;-69
2022/09/03 03:58:27;;;;;;;2.80;1.75;;;14.80;86.40;;;;;;5055948;28;20092;-69
2022/09/03 04:00:53;;;;;;;2.55;1.55;;;14.80;87.50;;;;;;5055562;28;20021;-69
2022/09/03 04:03:19;;;;;;;5.55;2.10;;;14.80;86.90;;;;;;5055539;28;20033;-68
2022/09/03 04:05:58;;;;;;;2.17;1.65;;;14.80;86.90;;;;;;5055325;28;20029;-69
2022/09/03 04:08:24;;;;;;;4.20;1.50;;;14.70;87.30;;;;;;5055432;28;20052;-69
2022/09/03 04:10:50;;;;;;;2.67;1.65;;;14.60;88.00;;;;;;5055003;28;20025;-68
2022/09/03 04:13:16;;;;;;;3.10;1.73;;;14.60;88.50;;;;;;5055346;28;20032;-68
2022/09/03 04:15:42;;;;;;;4.38;1.88;;;14.50;89.30;;;;;;5054973;28;20021;-68
2022/09/03 04:18:07;;;;;;;3.72;1.50;;;14.50;89.30;;;;;;5055286;28;20116;-69
2022/09/03 04:20:35;;;;;;;2.50;1.95;;;14.50;90.10;;;;;;5055035;28;20021;-69
2022/09/03 04:23:01;;;;;;;1.40;1.30;;;14.40;90.10;;;;;;5055399;28;20128;-69
2022/09/03 04:25:27;;;;;;;3.20;1.88;;;14.40;90.30;;;;;;5055396;28;20075;-68
2022/09/03 04:27:53;;;;;;;3.97;1.70;;;14.30;90.40;;;;;;5054913;28;20028;-69
2022/09/03 04:30:19;;;;;;;2.67;1.70;;;14.30;90.60;;;;;;5054913;28;20053;-69
2022/09/03 04:32:53;;;;;;;5.32;1.52;;;14.30;90.80;;;;;;5054576;28;20482;-69
2022/09/03 04:35:24;;;;;;;2.35;1.75;;;14.30;90.80;;;;;;5055182;28;20120;-68
2022/09/03 04:37:52;;;;;;;11.70;2.20;;;14.30;91.00;;;;;;5054396;28;20441;-69
2022/09/03 04:40:17;;;;;;;2.15;1.80;;;14.30;91.20;;;;;;5054387;28;20060;-69
2022/09/03 04:42:43;;;;;;;2.53;1.80;;;14.30;91.20;;;;;;5054388;28;20452;-69
2022/09/03 04:45:10;;;;;;;5.30;1.80;;;14.30;91.10;;;;;;5054764;28;20024;-68
2022/09/03 04:47:36;;;;;;;2.00;1.63;;;14.30;91.00;;;;;;5054338;28;20029;-69
2022/09/03 04:50:04;;;;;;;1.80;1.48;;;14.30;91.10;;;;;;5054716;28;20025;-69
2022/09/03 04:52:30;;;;;;;3.70;1.65;;;14.30;91.40;;;;;;5054129;28;20033;-68
2022/09/03 04:54:57;;;;;;;3.97;1.85;;;14.30;91.10;;;;;;5054513;28;20033;-68
2022/09/03 04:57:22;;;;;;;4.90;2.13;;;14.30;91.20;;;;;;5054491;28;20040;-68
2022/09/03 04:59:48;;;;;;;2.10;1.60;;;14.30;91.60;;;;;;5053990;28;20385;-68
2022/09/03 05:02:14;;;;;;;2.63;1.88;;;14.20;92.00;;;;;;5054368;28;20036;-70
2022/09/03 05:04:41;;;;;;;4.80;1.50;;;14.20;92.10;;;;;;5054001;28;20032;-69
2022/09/03 05:07:07;;;;;;;4.82;1.70;;;14.20;91.80;;;;;;5054370;28;20131;-67
2022/09/03 05:09:33;;;;;;;2.22;1.83;;;14.20;91.60;;;;;;5053999;28;20025;-70
2022/09/03 05:11:59;;;;;;;3.55;1.60;;;14.20;91.90;;;;;;5054207;28;20065;-69
2022/09/03 05:14:24;;;;;;;3.00;1.83;;;14.30;91.90;;;;;;5053932;28;20063;-69
2022/09/03 05:16:50;;;;;;;2.45;1.65;;;14.30;92.10;;;;;;5053628;28;20104;-69
2022/09/03 05:19:16;;;;;;;4.63;2.60;;;14.30;92.00;;;;;;5054016;28;20461;-69
2022/09/03 05:21:42;;;;;;;2.20;1.70;;;14.40;91.90;;;;;;5053601;28;20029;-68
2022/09/03 05:24:07;;;;;;;5.22;1.90;;;14.40;92.20;;;;;;5053649;28;20021;-68
2022/09/03 05:26:37;;;;;;;2.35;1.45;;;14.40;92.10;;;;;;5053162;28;20028;-70
2022/09/03 05:29:08;;;;;;;2.72;2.05;;;14.40;92.10;;;;;;5053814;28;20025;-68
2022/09/03 05:31:37;;;;;;;2.30;1.85;;;14.40;92.00;;;;;;5053625;28;20079;-70
2022/09/03 05:34:04;;;;;;;1.98;1.48;;;14.50;92.20;;;;;;5053627;28;20033;-69
2022/09/03 05:36:33;;;;;;;2.80;1.73;;;14.50;92.10;;;;;;5053584;28;20064;-69
2022/09/03 05:38:59;;;;;;;2.38;1.90;;;14.50;92.30;;;;;;5053617;28;20021;-69
2022/09/03 05:41:25;;;;;;;1.70;1.50;;;14.50;92.60;;;;;;5053618;28;20040;-69
2022/09/03 05:43:57;;;;;;;2.95;1.90;;;14.50;92.60;;;;;;5053043;28;20033;-69
2022/09/03 05:46:30;;;;;;;3.00;1.73;;;14.50;92.70;;;;;;5051792;28;20032;-69
2022/09/03 05:48:57;;;;;;;4.22;2.17;;;14.60;92.70;;;;;;5053064;28;20031;-69
2022/09/03 05:51:23;;;;;;;3.75;1.83;;;14.60;92.60;;;;;;5053384;28;20072;-69
2022/09/03 05:53:49;;;;;;;2.55;1.60;;;14.70;92.80;;;;;;5051878;28;20103;-69
2022/09/03 05:56:18;;;;;;;2.30;2.10;;;14.80;92.40;;;;;;5053332;28;20052;-69
2022/09/03 05:58:49;;;;;;;2.30;1.80;;;14.80;92.60;;;;;;5052477;28;20083;-69
2022/09/03 06:01:30;;;;;;;3.47;1.80;;;14.80;92.70;;;;;;5053082;28;20465;-67
2022/09/03 06:04:07;;;;;;;3.10;1.88;;;14.90;93.10;;;;;;5052976;28;20056;-69
2022/09/03 06:06:37;;;;;;;3.47;2.22;;;15.10;93.20;;;;;;5053141;28;20033;-69
2022/09/03 06:09:06;;;;;;;3.53;1.58;;;15.20;92.40;;;;;;5053333;28;20025;-69
2022/09/03 06:11:34;;;;;;;3.28;1.77;;;15.30;92.30;;;;;;5052918;28;20033;-69
2022/09/03 06:14:03;;;;;;;4.03;1.90;;;15.40;92.30;;;;;;5052533;28;20115;-68
2022/09/03 06:16:31;;;;;;;2.72;1.90;;;15.40;92.10;;;;;;5052889;28;20368;-69
2022/09/03 06:18:56;;;;;;;3.65;1.92;;;15.50;92.00;;;;;;5052135;28;20033;-69
2022/09/03 06:21:22;;;;;;;3.42;2.08;;;15.60;91.90;;;;;;5052902;28;20083;-68
2022/09/03 06:23:57;;;;;;;3.33;2.13;;;15.80;91.70;;;;;;5052095;28;20029;-69
2022/09/03 06:26:23;;;;;;;3.00;2.20;;;16.10;91.40;;;;;;5052770;28;20029;-69
2022/09/03 06:28:49;;;;;;;2.80;2.10;;;16.40;91.00;;;;;;5052190;28;20454;-68
2022/09/03 06:31:18;;;;;;;2.97;2.17;;;16.70;89.40;;;;;;5052140;28;20053;-68
2022/09/03 06:33:44;;;;;;;4.07;1.98;;;17.10;88.90;;;;;;5052117;28;20028;-68
2022/09/03 06:36:12;;;;;;;2.75;1.92;;;17.40;85.30;;;;;;5052669;28;20029;-69
2022/09/03 06:38:39;;;;;;;2.72;1.60;;;17.80;83.30;;;;;;5052788;28;20029;-68
2022/09/03 06:41:07;;;;;;;2.33;1.65;;;18.10;81.60;;;;;;5052445;28;20037;-68
2022/09/03 06:43:34;;;;;;;4.75;1.92;;;18.50;79.20;;;;;;5052535;28;20032;-69
2022/09/03 06:46:12;;;;;;;4.15;2.50;;;18.80;77.50;;;;;;5052024;28;20025;-69
2022/09/03 06:48:39;;;;;;;2.10;1.88;;;19.20;75.50;;;;;;5052566;28;20021;-69
2022/09/03 06:51:08;;;;;;;4.28;2.00;;;19.60;73.00;;;;;;5052278;28;20057;-68
2022/09/03 06:53:36;;;;;;;2.75;1.90;;;20.20;71.30;;;;;;5052000;28;20029;-70
2022/09/03 06:56:05;;;;;;;5.78;2.63;;;20.70;67.50;;;;;;5051965;28;20086;-68
2022/09/03 06:58:34;;;;;;;2.50;1.83;;;20.90;65.30;;;;;;5052549;28;20529;-68
2022/09/03 07:01:02;;;;;;;3.63;2.20;;;21.30;64.70;;;;;;5051808;28;20033;-68
2022/09/03 07:03:28;;;;;;;3.13;1.92;;;21.90;61.70;;;;;;5052700;28;20033;-69
2022/09/03 07:06:03;;;;;;;3.60;1.88;;;22.50;59.60;;;;;;5055804;28;20095;-68
2022/09/03 07:08:31;;;;;;;5.10;1.70;;;23.30;58.50;;;;;;5056143;28;20082;-68
2022/09/03 07:11:04;;;;;;;3.15;1.90;;;24.00;55.10;;;;;;5055748;28;20037;-68
2022/09/03 07:13:30;;;;;;;2.00;1.67;;;25.10;53.60;;;;;;5056220;28;20083;-69
2022/09/03 07:16:04;;;;;;;1.80;1.70;;;26.20;51.20;;;;;;5055571;28;20025;-69
2022/09/03 07:18:30;;;;;;;1.92;1.63;;;27.20;49.80;;;;;;5056034;28;20033;-69
2022/09/03 07:21:11;;;;;;;2.30;1.50;;;28.00;46.20;;;;;;5055768;28;20033;-69
2022/09/03 07:23:37;;;;;;;2.97;1.60;;;29.00;44.90;;;;;;5056023;28;20025;-69
2022/09/03 07:26:06;;;;;;;3.45;1.45;;;29.40;43.30;;;;;;5055490;28;20100;-69
2022/09/03 07:28:33;;;;;;;4.82;1.85;;;30.00;42.10;;;;;;5055943;28;20072;-69
2022/09/03 07:31:13;;;;;;;2.22;1.70;;;30.30;41.90;;;;;;5054960;28;20049;-69
2022/09/03 07:33:40;;;;;;;3.65;1.67;;;30.80;40.80;;;;;;5055855;28;20037;-68
2022/09/03 07:36:09;;;;;;;4.53;1.92;;;31.50;40.20;;;;;;5055339;28;20029;-69
2022/09/03 07:38:35;;;;;;;1.88;1.45;;;31.80;38.30;;;;;;5055665;28;20022;-69
2022/09/03 07:41:04;;;;;;;2.33;1.20;;;31.90;38.80;;;;;;5055080;28;20438;-69
2022/09/03 07:43:34;;;;;;;1.85;1.55;;;32.70;38.60;;;;;;5055185;28;20032;-68
2022/09/03 07:46:00;;;;;;;1.92;1.30;;;32.80;37.60;;;;;;5055271;28;20029;-69
2022/09/03 07:48:26;;;;;;;2.53;1.50;;;33.50;37.40;;;;;;5055193;28;20107;-67
2022/09/03 07:50:58;;;;;;;3.20;1.65;;;33.80;36.00;;;;;;5054780;28;20029;-68
2022/09/03 07:53:24;;;;;;;1.88;1.17;;;33.90;36.40;;;;;;5055499;28;20040;-68
2022/09/03 07:55:50;;;;;;;2.85;1.58;;;34.40;35.70;;;;;;5054887;28;20021;-68
2022/09/03 07:58:16;;;;;;;2.58;1.60;;;34.20;35.10;;;;;;5055183;28;20033;-69
2022/09/03 08:00:42;;;;;;;1.88;1.50;;;33.50;35.20;;;;;;5055117;28;20116;-69
2022/09/03 08:03:08;;;;;;;2.30;1.75;;;33.70;36.10;;;;;;5054854;28;20112;-69
2022/09/03 08:05:36;;;;;;;2.35;1.35;;;33.90;36.20;;;;;;5054985;28;20059;-68
2022/09/03 08:08:03;;;;;;;3.58;1.65;;;34.60;35.40;;;;;;5054749;28;20457;-69
2022/09/03 08:10:30;;;;;;;1.58;1.30;;;35.30;34.90;;;;;;5055141;28;20036;-69
2022/09/03 08:12:57;;;;;;;1.98;1.30;;;35.30;34.00;;;;;;5054916;28;20120;-70
2022/09/03 08:15:23;;;;;;;2.05;1.33;;;35.70;33.10;;;;;;5054327;28;20021;-69
2022/09/03 08:17:49;;;;;;;2.47;1.50;;;35.70;33.30;;;;;;5054422;28;20052;-68
2022/09/03 08:20:15;;;;;;;2.65;1.50;;;36.00;33.40;;;;;;5054632;28;20029;-68
2022/09/03 08:22:40;;;;;;;7.57;1.50;;;36.00;32.50;;;;;;5054811;28;20513;-68
2022/09/03 08:25:06;;;;;;;1.55;1.33;;;36.60;32.40;;;;;;5054657;28;20111;-69
2022/09/03 08:27:32;;;;;;;1.58;1.27;;;37.40;31.80;;;;;;5054484;28;20394;-68
2022/09/03 08:29:58;;;;;;;2.40;1.42;;;37.80;31.40;;;;;;5054274;28;20041;-69
2022/09/03 08:32:23;;;;;;;3.65;1.20;;;37.80;31.50;;;;;;5055177;28;20032;-69
2022/09/03 08:34:51;;;;;;;2.08;1.23;;;38.00;30.90;;;;;;5055346;28;20382;-70
2022/09/03 08:37:17;;;;;;;3.33;1.50;;;37.80;31.10;;;;;;5055254;28;20029;-69
2022/09/03 08:39:44;;;;;;;2.53;1.40;;;38.00;30.60;;;;;;5055348;28;20083;-69
2022/09/03 08:42:36;;;;;;;3.60;1.63;;;37.60;31.00;;;;;;5054609;28;20435;-69
2022/09/03 08:45:05;;;;;;;2.30;1.20;;;37.00;31.60;;;;;;5054186;28;20489;-69
2022/09/03 08:47:42;;;;;;;1.52;1.30;;;36.10;32.10;;;;;;5054503;28;20342;-68
2022/09/03 08:50:10;;;;;;;1.77;1.35;;;34.30;33.50;;;;;;5054131;28;20478;-69
2022/09/03 08:52:40;;;;;;;1.88;1.30;;;33.60;34.60;;;;;;5054333;28;20060;-68
2022/09/03 08:55:26;;;;;;;4.30;1.67;;;33.00;36.20;;;;;;5053999;28;20539;-69
2022/09/03 08:57:55;;;;;;;2.28;1.20;;;32.50;37.30;;;;;;5053990;28;20033;-69
2022/09/03 09:00:21;;;;;;;3.72;1.77;;;31.60;38.00;;;;;;5053627;28;20028;-68
2022/09/03 09:03:05;;;;;;;2.08;1.23;;;30.90;38.60;;;;;;5053786;28;20029;-68
2022/09/03 09:05:54;;;;;;;2.22;1.50;;;30.40;40.20;;;;;;5034187;28;20025;-68
2022/09/03 09:08:33;;;;;;;2.67;1.40;;;29.60;41.00;;;;;;5033989;28;20027;-69
2022/09/03 09:11:11;;;;;;;2.22;1.42;;;28.90;42.50;;;;;;5033552;28;20025;-69
2022/09/03 09:14:14;;;;;;;1.58;1.23;;;28.70;43.40;;;;;;5033900;28;20037;-69
2022/09/03 09:16:58;;;;;;;1.83;1.25;;;28.50;44.40;;;;;;5033361;28;20072;-69
2022/09/03 09:19:45;;;;;;;1.58;1.20;;;28.20;44.10;;;;;;5033789;28;20090;-69
2022/09/03 09:22:34;;;;;;;2.58;1.83;;;28.00;44.60;;;;;;5033187;28;20034;-69
2022/09/03 09:25:08;;;;;;;2.35;1.52;;;27.80;44.80;;;;;;5033390;28;20148;-69
2022/09/03 09:27:33;;;;;;;2.30;1.20;;;27.60;44.40;;;;;;5033615;28;20030;-69
2022/09/03 09:30:04;;;;;;;3.35;1.10;;;27.20;45.70;;;;;;5032978;28;20052;-69
2022/09/03 09:32:30;;;;;;;2.30;1.40;;;27.10;46.20;;;;;;5033755;28;20033;-69
2022/09/03 09:34:56;;;;;;;1.58;1.23;;;26.90;46.50;;;;;;5033182;28;20179;-68
2022/09/03 09:37:23;;;;;;;4.75;1.70;;;26.80;46.40;;;;;;5033675;28;20087;-69
2022/09/03 09:39:59;;;;;;;1.83;1.48;;;26.70;46.90;;;;;;5033383;28;20025;-68
2022/09/03 09:42:26;;;;;;;1.67;1.33;;;26.70;47.10;;;;;;5042842;28;20029;-69
2022/09/03 09:44:52;;;;;;;3.28;1.70;;;26.80;47.10;;;;;;5053118;28;20531;-71
2022/09/03 09:47:38;;;;;;;1.30;1.20;;;26.90;47.00;;;;;;5053312;28;20462;-68
2022/09/03 09:50:17;;;;;;;2.15;1.50;;;26.90;47.00;;;;;;5052988;28;20366;-69
2022/09/03 09:52:44;;;;;;;2.20;1.50;;;26.90;47.10;;;;;;5053350;28;20033;-69
2022/09/03 09:55:19;;;;;;;2.08;1.38;;;26.90;47.10;;;;;;5052754;28;20040;-70
2022/09/03 09:57:45;;;;;;;3.92;1.27;;;27.00;46.80;;;;;;5053453;28;20040;-68
2022/09/03 10:00:15;;;;;;;3.35;1.30;;;26.90;47.30;;;;;;5052391;28;20029;-68
2022/09/03 10:02:48;;;;;;;;;;;27.00;47.20;;;;;;5053548;28;20032;-69
2022/09/03 10:05:24;;;;;;;3.10;1.58;;;27.10;47.80;;;;;;5052775;28;19908;-68
2022/09/03 10:08:17;;;;;;;1.48;1.10;;;27.20;47.90;;;;;;5052753;28;20083;-69
2022/09/03 10:10:49;;;;;;;2.45;1.30;;;27.20;47.30;;;;;;5053095;28;20028;-69
2022/09/03 10:13:28;;;;;;;1.70;1.30;;;27.20;47.70;;;;;;5052591;28;20037;-69
2022/09/03 10:16:01;;;;;;;1.50;1.35;;;27.30;47.40;;;;;;5053018;28;20462;-69
2022/09/03 10:18:42;;;;;;;1.55;1.23;;;27.30;47.70;;;;;;5053078;28;20522;-69
2022/09/03 10:21:09;;;;;;;3.88;1.40;;;27.50;47.60;;;;;;5052118;28;20381;-70
2022/09/03 10:23:47;;;;;;;2.55;1.02;;;27.40;47.00;;;;;;5052608;28;20381;-67
2022/09/03 10:26:18;;;;;;;3.35;1.20;;;27.40;47.00;;;;;;5052403;28;20040;-69
2022/09/03 10:28:49;;;;;;;2.17;1.35;;;27.30;47.00;;;;;;5052718;28;20028;-68
2022/09/03 10:31:54;;;;;;;1.75;1.30;;;27.20;47.60;;;;;;5052083;28;20259;-68
2022/09/03 10:34:32;;;;;;;3.47;1.20;;;27.20;47.50;;;;;;5047313;28;20040;-68
2022/09/03 10:36:58;;;;;;;5.47;1.40;;;27.30;47.80;;;;;;5052117;28;20428;-69
2022/09/03 10:39:42;;;;;;;3.28;1.25;;;27.40;47.40;;;;;;5052174;28;20128;-69
2022/09/03 10:42:13;;;;;;;2.85;1.23;;;27.40;47.70;;;;;;5052202;28;20520;-70
2022/09/03 10:45:08;;;;;;;1.73;1.13;;;27.50;47.20;;;;;;5052479;28;20025;-69
2022/09/03 10:48:05;;;;;;;2.15;1.20;;;27.50;46.90;;;;;;5032750;28;20034;-69
2022/09/03 10:50:55;;;;;;;2.92;1.45;;;27.40;47.10;;;;;;5050748;28;20037;-68
2022/09/03 10:53:39;;;;;;;2.23;1.23;;;27.30;47.10;;;;;;5051831;28;20163;-67
2022/09/03 10:56:11;;;;;;;2.38;1.42;;;27.30;47.00;;;;;;5052127;28;20036;-68
2022/09/03 10:58:47;;;;;;;1.73;1.30;;;27.20;46.70;;;;;;5052564;28;20040;-68
2022/09/03 11:01:13;;;;;;;1.40;1.30;;;27.20;47.20;;;;;;5051610;28;20017;-69
2022/09/03 11:03:47;;;;;;;2.45;1.58;;;27.20;46.90;;;;;;5052600;28;20021;-68
2022/09/03 11:06:20;;;;;;;8.88;1.67;;;27.30;47.10;;;;;;5051916;28;20488;-69
2022/09/03 11:09:09;;;;;;;1.70;1.40;;;27.30;47.00;;;;;;5052275;28;20029;-68
2022/09/03 11:11:41;;;;;;;2.28;1.20;;;27.40;47.20;;;;;;5051996;28;20033;-69
2022/09/03 11:14:11;;;;;;;1.88;1.30;;;27.50;47.00;;;;;;5052146;28;20025;-69
2022/09/03 11:16:53;;;;;;;2.95;1.30;;;27.60;47.00;;;;;;5052320;28;20029;-69
2022/09/03 11:19:27;;;;;;;2.20;1.40;;;27.80;48.00;;;;;;5051660;28;20443;-69
2022/09/03 11:21:53;;;;;;;1.70;1.20;;;27.80;46.60;;;;;;5052258;28;20112;-71
2022/09/03 11:24:26;;;;;;;2.15;1.13;;;27.90;46.40;;;;;;5051503;28;20063;-68
2022/09/03 11:27:39;;;;;;;1.77;1.23;;;27.90;46.10;;;;;;5051771;28;20052;-69
2022/09/03 11:30:08;;;;;;;3.90;1.30;;;27.90;46.10;;;;;;5046381;28;20182;-68
2022/09/03 11:32:42;;;;;;;2.22;1.30;;;27.90;45.90;;;;;;5051719;28;20465;-69
2022/09/03 11:35:23;;;;;;;2.75;1.10;;;27.90;45.60;;;;;;5051419;28;20106;-70
2022/09/03 11:38:02;;;;;;;1.83;1.38;;;27.80;45.90;;;;;;5052178;28;20025;-69
2022/09/03 11:40:34;;;;;;;2.28;1.05;;;28.00;46.10;;;;;;5051669;28;20110;-69
2022/09/03 11:43:25;;;;;;;1.70;1.45;;;28.00;45.90;;;;;;5051818;28;20114;-72
2022/09/03 11:46:21;;;;;;;3.25;1.42;;;28.10;45.60;;;;;;5052138;28;20021;-69
2022/09/03 11:48:48;;;;;;;2.63;1.20;;;28.10;45.50;;;;;;5051943;28;20149;-69
2022/09/03 11:51:28;;;;;;;3.88;1.20;;;28.10;45.40;;;;;;5052509;28;20021;-69
2022/09/03 11:54:03;;;;;;;2.20;1.35;;;28.10;45.70;;;;;;5055438;28;20029;-68
2022/09/03 11:56:31;;;;;;;1.50;1.40;;;28.00;45.30;;;;;;5055720;28;20029;-68
2022/09/03 11:59:06;;;;;;;1.92;1.38;;;28.10;45.40;;;;;;5055544;28;20048;-68
2022/09/03 12:01:34;;;;;;;1.17;0.88;;;28.00;45.50;;;;;;5055027;28;20041;-69
2022/09/03 12:04:05;;;;;;;2.53;1.15;;;28.00;45.50;;;;;;5055343;28;20446;-69
2022/09/03 12:06:40;;;;;;;6.45;1.42;;;27.90;45.50;;;;;;5055462;28;20033;-69
2022/09/03 12:09:30;;;;;;;2.10;1.00;;;28.00;45.50;;;;;;5055234;28;20033;-69
2022/09/03 12:12:12;;;;;;;1.65;1.20;;;28.00;45.30;;;;;;5054946;28;20074;-69
2022/09/03 12:15:06;;;;;;;2.25;1.33;;;28.10;45.60;;;;;;5054997;28;20125;-70
2022/09/03 12:20:41;;;;;;;1.85;1.30;;;27.80;45.50;;;;;;5054879;28;20036;-69
2022/09/03 12:23:10;;;;;;;2.08;1.20;;;27.80;45.30;;;;;;5054593;28;20033;-69
2022/09/03 12:25:46;;;;;;;1.88;1.10;;;27.50;45.30;;;;;;5055090;28;20108;-68
2022/09/03 12:28:20;;;;;;;1.20;1.00;;;27.50;45.80;;;;;;5054454;28;20027;-70
2022/09/03 12:30:46;;;;;;;3.92;1.40;;;27.30;45.60;;;;;;5054572;28;20053;-69
2022/09/03 12:33:16;;;;;;;1.73;1.60;;;27.20;46.00;;;;;;5054243;28;20047;-69
2022/09/03 12:35:42;;;;;;;2.22;1.10;;;27.00;46.20;;;;;;5054816;28;20025;-69
2022/09/03 12:38:11;;;;;;;3.42;1.48;;;26.80;46.40;;;;;;5054276;28;20039;-69
2022/09/03 12:40:42;;;;;;;1.60;1.00;;;26.60;46.90;;;;;;5054369;28;20025;-69
2022/09/03 12:43:16;;;;;;;2.65;1.20;;;26.50;47.10;;;;;;5053028;28;20048;-69
2022/09/03 12:45:44;;;;;;;2.03;1.13;;;26.40;47.20;;;;;;5054153;28;20025;-69
2022/09/03 12:48:14;;;;;;;5.35;1.80;;;26.50;47.60;;;;;;5054132;28;20415;-69
2022/09/03 12:50:41;;;;;;;1.98;1.20;;;26.40;47.40;;;;;;5054512;28;20025;-69
2022/09/03 12:53:09;;;;;;;1.35;1.00;;;26.30;47.70;;;;;;5053924;28;20039;-70
2022/09/03 12:55:39;;;;;;;4.75;1.50;;;26.30;47.40;;;;;;5054461;28;20037;-69
2022/09/03 12:58:12;;;;;;;1.35;1.02;;;26.40;47.70;;;;;;5054096;28;20649;-69
2022/09/03 13:00:48;;;;;;;1.60;1.10;;;26.30;47.30;;;;;;5054305;28;20033;-69
2022/09/03 13:03:20;;;;;;;2.38;1.00;;;26.30;47.30;;;;;;5053593;28;20031;-69
2022/09/03 13:05:52;;;;;;;1.52;0.90;;;26.30;47.50;;;;;;5053571;28;20082;-69
2022/09/03 13:08:29;;;;;;;1.52;1.23;;;26.20;47.60;;;;;;5053580;28;20424;-70
2022/09/03 13:10:59;;;;;;;1.77;1.20;;;26.10;47.70;;;;;;5054203;28;20473;-69
2022/09/03 13:13:30;;;;;;;1.85;1.35;;;26.10;47.80;;;;;;5053564;28;20491;-68
2022/09/03 13:16:05;;;;;;;1.33;1.20;;;26.00;47.90;;;;;;5053968;28;20037;-69
2022/09/03 13:18:53;;;;;;;1.52;1.00;;;26.00;48.20;;;;;;5053523;28;20029;-68
2022/09/03 13:21:38;;;;;;;1.23;0.80;;;26.00;48.10;;;;;;5042768;28;20086;-68